Time;durP1;ratioP1;P1;durP2;ratioP2;P2;SDS_P1;SDS_P2;PMS_P1;PMS_P2;Temp;Humidity;BMP_temperature;BMP_pressure;BME280_temperature;BME280_humidity;BME280_pressure;Samples;Min_cycle;Max_cycle;Signal;HPM_P1;HPM_P2
2022/02/07 00:02:11;;;;;;;14.07;2.03;;;;;;;4.56;100.00;101036.75;5086890;28;20035;-74
2022/02/07 00:04:38;;;;;;;10.75;1.48;;;;;;;4.14;100.00;101031.41;5066694;28;20085;-74
2022/02/07 00:07:05;;;;;;;10.82;1.98;;;;;;;3.98;100.00;101048.91;5088484;28;20109;-74
2022/02/07 00:09:33;;;;;;;14.02;1.98;;;;;;;3.85;100.00;101052.66;5083509;28;20052;-75
2022/02/07 00:11:58;;;;;;;14.98;2.05;;;;;;;3.72;100.00;101052.88;5060019;28;20113;-74
2022/02/07 00:14:23;;;;;;;15.40;2.67;;;;;;;3.72;100.00;101048.56;5074480;28;20174;-76
2022/02/07 00:16:49;;;;;;;18.85;1.85;;;;;;;3.71;100.00;101066.72;5076257;28;20540;-75
2022/02/07 00:19:22;;;;;;;15.10;3.13;;;;;;;3.78;100.00;101079.19;5079820;28;20090;-75
2022/02/07 00:21:48;;;;;;;19.73;2.20;;;;;;;3.77;100.00;101069.63;5070297;28;20037;-74
2022/02/07 00:24:14;;;;;;;15.40;2.22;;;;;;;3.79;100.00;101073.19;5087725;28;20028;-74
2022/02/07 00:26:39;;;;;;;17.17;2.30;;;;;;;3.83;100.00;101080.31;5069445;28;20115;-74
2022/02/07 00:29:04;;;;;;;21.85;2.50;;;;;;;3.86;100.00;101087.38;5081820;28;20025;-74
2022/02/07 00:31:30;;;;;;;16.63;2.25;;;;;;;3.92;100.00;101090.28;5085298;28;20028;-74
2022/02/07 00:33:56;;;;;;;20.95;3.08;;;;;;;3.99;100.00;101094.94;5076592;28;20111;-74
2022/02/07 00:36:21;;;;;;;27.98;4.00;;;;;;;4.03;100.00;101091.66;5084037;28;20023;-75
2022/02/07 00:38:50;;;;;;;22.20;3.30;;;;;;;4.14;100.00;101106.91;5077790;28;20067;-75
2022/02/07 00:43:43;;;;;;;16.95;4.10;;;;;;;4.43;99.47;101117.78;5087435;28;20040;-75
2022/02/07 00:46:11;;;;;;;20.10;3.03;;;;;;;4.59;95.78;101117.66;5058733;28;20035;-75
2022/02/07 00:48:38;;;;;;;25.17;3.05;;;;;;;4.68;94.19;101120.69;5067407;28;20035;-75
2022/02/07 00:51:05;;;;;;;18.00;2.25;;;;;;;4.68;95.05;101136.31;5057552;28;20048;-75
2022/02/07 00:53:33;;;;;;;16.98;2.83;;;;;;;4.67;93.08;101150.19;5089230;28;20029;-74
2022/02/07 00:56:00;;;;;;;18.40;3.38;;;;;;;4.70;89.84;101147.69;5061607;28;20025;-75
2022/02/07 00:58:26;;;;;;;8.20;2.25;;;;;;;4.71;89.94;101131.25;5060657;28;20115;-75
2022/02/07 01:00:52;;;;;;;10.73;1.83;;;;;;;4.72;88.74;101151.28;5084247;28;20107;-75
2022/02/07 01:03:19;;;;;;;15.32;2.13;;;;;;;4.70;90.45;101168.56;5075214;28;20069;-76
2022/02/07 01:05:44;;;;;;;19.30;2.80;;;;;;;4.72;90.17;101181.66;5082602;28;20499;-75
2022/02/07 01:08:10;;;;;;;19.05;2.28;;;;;;;4.81;88.70;101175.97;5073790;28;20032;-75
2022/02/07 01:10:55;;;;;;;15.82;3.60;;;;;;;4.89;89.76;101185.03;5074638;28;20424;-76
2022/02/07 01:13:34;;;;;;;14.88;2.67;;;;;;;4.90;90.44;101189.44;5077694;28;20028;-76
2022/02/07 01:16:16;;;;;;;18.70;2.53;;;;;;;4.83;90.72;101208.22;5074047;28;20036;-75
2022/02/07 01:22:05;;;;;;;13.32;2.35;;;;;;;4.82;88.56;101222.09;5080293;28;20039;-75
2022/02/07 01:46:34;;;;;;;18.00;2.17;;;;;;;4.28;97.99;101378.47;5085449;28;20135;-75
2022/02/07 01:49:18;;;;;;;17.50;2.47;;;;;;;4.38;96.63;101370.28;5080706;28;20090;-75
2022/02/07 01:56:42;;;;;;;14.30;2.50;;;;;;;4.66;90.38;101387.31;5101207;28;20177;-75
2022/02/07 01:59:08;;;;;;;13.25;1.60;;;;;;;4.68;88.05;101388.25;5101225;28;20111;-76
2022/02/07 02:01:36;;;;;;;20.25;3.45;;;;;;;4.67;88.49;101404.75;5101403;28;20047;-76
2022/02/07 02:04:02;;;;;;;15.95;2.58;;;;;;;4.72;87.45;101409.38;5094452;28;20531;-75
2022/02/07 02:06:28;;;;;;;17.25;1.85;;;;;;;4.72;87.93;101416.28;5094250;28;20108;-75
2022/02/07 02:08:55;;;;;;;18.15;2.50;;;;;;;4.68;89.28;101422.16;5094099;28;20027;-75
2022/02/07 02:11:21;;;;;;;22.45;2.33;;;;;;;4.79;88.19;101426.22;5081779;28;20028;-75
2022/02/07 02:16:30;;;;;;;16.83;1.98;;;;;;;4.84;88.71;101448.19;5102552;28;20039;-76
2022/02/07 02:38:40;;;;;;;16.58;1.98;;;;;;;5.28;83.91;101492.03;5094097;28;20043;-74
2022/02/07 02:45:28;;;;;;;18.90;1.95;;;;;;;5.23;85.54;101497.03;5100649;28;20035;-75
2022/02/07 02:46:49;;;;;;;11.75;3.08;;;;;;;5.21;85.81;101509.13;5092962;28;20037;-76
2022/02/07 02:49:14;;;;;;;17.60;2.10;;;;;;;5.20;87.16;101507.31;5096687;28;20027;-74
2022/02/07 02:51:40;;;;;;;21.27;3.40;;;;;;;5.20;87.20;101528.19;5108925;28;20047;-74
2022/02/07 02:54:09;;;;;;;23.52;3.17;;;;;;;5.19;87.56;101526.38;5087516;28;20099;-74
2022/02/07 02:56:35;;;;;;;20.45;2.63;;;;;;;5.18;86.75;101527.19;5095913;28;20127;-74
2022/02/07 02:59:00;;;;;;;19.00;2.63;;;;;;;5.21;86.08;101545.63;5094262;28;20028;-74
2022/02/07 03:01:26;;;;;;;21.15;2.85;;;;;;;5.22;86.03;101540.50;5103814;28;20077;-74
2022/02/07 03:03:51;;;;;;;22.48;2.63;;;;;;;5.23;85.64;101528.31;5098017;28;20723;-74
2022/02/07 03:06:17;;;;;;;17.33;2.30;;;;;;;5.30;85.43;101550.41;5107563;28;20031;-75
2022/02/07 03:08:43;;;;;;;24.20;2.90;;;;;;;5.25;85.95;101552.81;5101626;28;20039;-75
2022/02/07 03:11:18;;;;;;;14.88;2.22;;;;;;;5.18;86.05;101577.69;5099896;28;20085;-74
2022/02/07 03:13:50;;;;;;;16.77;2.35;;;;;;;5.18;84.70;101566.34;5103369;28;20023;-74
2022/02/07 03:16:37;;;;;;;16.33;2.05;;;;;;;5.16;86.17;101578.41;5094688;28;20051;-75
2022/02/07 03:19:11;;;;;;;15.93;2.50;;;;;;;5.12;86.64;101579.09;5101920;28;20034;-75
2022/02/07 03:21:37;;;;;;;29.85;5.10;;;;;;;5.05;87.07;101594.41;5098235;28;20027;-74
2022/02/07 03:24:04;;;;;;;20.48;3.38;;;;;;;5.06;87.65;101608.38;5082705;28;20032;-75
2022/02/07 03:26:35;;;;;;;18.38;3.03;;;;;;;5.09;87.93;101615.44;5078928;28;20142;-74
2022/02/07 03:29:00;;;;;;;12.93;2.45;;;;;;;5.12;87.14;101628.66;5100786;28;20044;-74
2022/02/07 03:31:26;;;;;;;17.27;2.58;;;;;;;5.17;86.98;101628.06;5096793;28;20118;-75
2022/02/07 03:33:51;;;;;;;18.67;2.72;;;;;;;5.18;87.36;101644.59;5098596;28;20038;-75
2022/02/07 03:36:17;;;;;;;24.17;2.58;;;;;;;5.23;87.40;101653.56;5098754;28;20066;-74
2022/02/07 03:38:42;;;;;;;27.15;3.30;;;;;;;5.24;87.60;101660.59;5108151;28;20036;-74
2022/02/07 03:41:08;;;;;;;18.83;2.60;;;;;;;5.24;87.71;101666.69;5087790;28;20028;-74
2022/02/07 03:43:34;;;;;;;29.60;3.55;;;;;;;5.27;88.32;101681.63;5098746;28;20112;-74
2022/02/07 03:46:01;;;;;;;20.00;2.95;;;;;;;5.29;88.94;101685.22;5098442;28;20494;-74
2022/02/07 03:48:27;;;;;;;22.95;3.25;;;;;;;5.30;89.59;101696.53;5110312;28;20039;-74
2022/02/07 03:50:52;;;;;;;17.27;2.63;;;;;;;5.28;90.26;101699.06;5096875;28;20052;-74
2022/02/07 03:53:18;;;;;;;22.17;2.90;;;;;;;5.30;89.90;101713.06;5109097;28;20026;-74
2022/02/07 03:55:43;;;;;;;18.02;2.85;;;;;;;5.33;89.57;101713.25;5084289;28;20024;-74
2022/02/07 03:58:09;;;;;;;33.28;3.67;;;;;;;5.33;89.49;101718.47;5097706;28;20063;-75
2022/02/07 04:00:35;;;;;;;19.33;4.32;;;;;;;5.35;89.13;101731.59;5080302;28;20027;-74
2022/02/07 04:03:06;;;;;;;24.48;3.00;;;;;;;5.37;89.50;101725.66;5099746;28;20447;-75
2022/02/07 04:08:01;;;;;;;23.98;4.00;;;;;;;5.46;89.76;101747.81;5098959;28;20097;-74
2022/02/07 04:10:31;;;;;;;16.17;3.40;;;;;;;5.48;89.09;101759.22;5077571;28;20027;-74
2022/02/07 04:13:00;;;;;;;21.30;2.75;;;;;;;5.49;88.37;101761.91;5086823;28;20460;-74
2022/02/07 04:15:26;;;;;;;20.00;3.13;;;;;;;5.51;87.95;101759.41;5085529;28;20111;-75
2022/02/07 04:17:57;;;;;;;21.70;2.90;;;;;;;5.51;87.55;101775.06;5094556;28;20343;-75
2022/02/07 04:20:22;;;;;;;21.92;3.28;;;;;;;5.53;87.93;101768.19;5100166;28;20449;-74
2022/02/07 04:22:48;;;;;;;25.75;2.28;;;;;;;5.56;88.39;101782.31;5080100;28;20024;-74
2022/02/07 04:25:14;;;;;;;20.95;2.58;;;;;;;5.54;89.13;101788.28;5090997;28;20031;-74
2022/02/07 04:27:42;;;;;;;20.33;3.30;;;;;;;5.53;89.52;101792.59;5106589;28;20024;-74
2022/02/07 04:30:08;;;;;;;22.77;3.17;;;;;;;5.54;90.09;101798.72;5103114;28;20036;-74
2022/02/07 04:32:34;;;;;;;20.10;2.58;;;;;;;5.56;90.25;101805.81;5084551;28;20079;-74
2022/02/07 04:35:00;;;;;;;25.75;3.30;;;;;;;5.58;91.29;101813.72;5098426;28;20020;-75
2022/02/07 04:37:25;;;;;;;21.38;2.88;;;;;;;5.60;90.23;101826.84;5073093;28;20060;-75
2022/02/07 04:39:52;;;;;;;24.33;3.15;;;;;;;5.65;89.35;101834.09;5095382;28;20116;-74
2022/02/07 04:42:19;;;;;;;20.98;3.25;;;;;;;5.71;89.53;101841.38;5100860;28;20475;-74
2022/02/07 04:45:02;;;;;;;22.92;3.60;;;;;;;5.73;90.35;101844.97;5095410;28;20356;-74
2022/02/07 04:50:22;;;;;;;22.75;2.53;;;;;;;5.70;90.36;101866.59;5100973;28;20040;-74
2022/02/07 05:00:51;;;;;;;15.02;2.38;;;;;;;5.73;90.26;101897.19;5100171;28;20119;-74
2022/02/07 05:03:21;;;;;;;27.35;3.63;;;;;;;5.71;90.09;101902.34;5078548;28;20459;-73
2022/02/07 05:13:48;;;;;;;19.50;3.45;;;;;;;5.69;91.10;101922.25;5099843;28;20054;-73
2022/02/07 05:16:40;;;;;;;18.00;2.92;;;;;;;5.69;91.10;101924.84;5082511;28;20494;-73
2022/02/07 05:19:05;;;;;;;15.65;2.50;;;;;;;5.68;90.78;101930.91;5098671;28;20122;-74
2022/02/07 05:21:30;;;;;;;16.40;2.78;;;;;;;5.66;91.54;101942.97;5094460;28;20383;-74
2022/02/07 05:23:56;;;;;;;26.10;2.80;;;;;;;5.61;93.18;101943.53;5104090;28;20027;-73
2022/02/07 05:26:23;;;;;;;19.50;2.58;;;;;;;5.62;94.04;101963.63;5113449;28;20039;-74
2022/02/07 05:28:49;;;;;;;17.48;3.28;;;;;;;5.65;93.94;101961.16;5100307;28;20372;-74
2022/02/07 05:31:15;;;;;;;17.40;2.67;;;;;;;5.68;94.01;101966.56;5080895;28;20027;-74
2022/02/07 05:33:40;;;;;;;29.92;3.38;;;;;;;5.68;94.27;101982.22;5095031;28;20094;-74
2022/02/07 05:36:10;;;;;;;24.02;3.78;;;;;;;5.70;94.09;101986.72;5076286;28;20106;-74
2022/02/07 05:38:39;;;;;;;23.88;3.08;;;;;;;5.72;93.53;101987.72;5081919;28;20024;-74
2022/02/07 05:41:06;;;;;;;20.90;2.78;;;;;;;5.72;92.52;101994.63;5076134;28;20036;-73
2022/02/07 05:43:31;;;;;;;25.45;3.53;;;;;;;5.74;91.51;101988.69;5075783;28;20028;-74
2022/02/07 05:45:57;;;;;;;22.92;3.90;;;;;;;5.77;90.71;101992.28;5101968;28;20100;-73
2022/02/07 05:48:22;;;;;;;21.20;2.35;;;;;;;5.74;89.92;101998.25;5076674;28;20119;-73
2022/02/07 05:50:47;;;;;;;20.63;3.00;;;;;;;5.77;90.53;102000.13;5075124;28;20044;-73
2022/02/07 05:53:13;;;;;;;16.48;2.55;;;;;;;5.76;90.25;102000.94;5088738;28;20024;-74
2022/02/07 05:55:38;;;;;;;15.45;2.20;;;;;;;5.71;90.89;102004.19;5097101;28;20020;-73
2022/02/07 05:58:03;;;;;;;25.25;3.03;;;;;;;5.66;91.35;102000.41;5101151;28;20032;-73
2022/02/07 06:00:32;;;;;;;16.05;2.25;;;;;;;5.62;91.06;102006.28;5093104;28;20107;-74
2022/02/07 06:03:01;;;;;;;21.48;3.90;;;;;;;5.64;91.15;102016.81;5093977;28;20032;-74
2022/02/07 06:05:27;;;;;;;24.70;2.42;;;;;;;5.62;91.88;102019.34;5103466;28;20044;-74
2022/02/07 06:07:52;;;;;;;20.30;2.42;;;;;;;5.62;91.96;102035.00;5092198;28;20043;-76
2022/02/07 06:10:18;;;;;;;21.23;3.80;;;;;;;5.59;92.60;102032.25;5094488;28;20099;-75
2022/02/07 06:12:45;;;;;;;20.83;2.72;;;;;;;5.57;92.85;102028.63;5078262;28;20473;-75
2022/02/07 06:15:11;;;;;;;29.15;2.90;;;;;;;5.58;92.95;102031.31;5097108;28;20019;-75
2022/02/07 06:17:37;;;;;;;15.80;2.72;;;;;;;5.58;93.48;102035.66;5082176;28;20116;-75
2022/02/07 06:20:03;;;;;;;14.95;2.40;;;;;;;5.55;93.50;102038.09;5093010;28;20036;-75
2022/02/07 06:22:28;;;;;;;21.92;2.80;;;;;;;5.57;93.37;102044.28;5098755;28;20031;-74
2022/02/07 06:24:54;;;;;;;17.02;4.13;;;;;;;5.53;94.09;102042.31;5097404;28;20430;-75
2022/02/07 06:27:19;;;;;;;19.45;4.05;;;;;;;5.50;94.54;102047.38;5110740;28;20043;-74
2022/02/07 06:29:45;;;;;;;15.85;2.83;;;;;;;5.48;94.76;102057.75;5100459;28;20024;-74
2022/02/07 06:32:11;;;;;;;20.13;3.42;;;;;;;5.45;95.63;102077.53;5099843;28;20024;-74
2022/02/07 06:34:36;;;;;;;22.75;2.90;;;;;;;5.43;95.82;102077.47;5101518;28;20016;-74
2022/02/07 06:37:02;;;;;;;29.17;3.30;;;;;;;5.44;95.84;102088.78;5092988;28;20043;-75
2022/02/07 06:39:27;;;;;;;21.27;3.25;;;;;;;5.43;96.61;102100.06;5103374;28;20024;-76
2022/02/07 06:41:53;;;;;;;30.67;3.25;;;;;;;5.46;96.39;102110.66;5082767;28;20039;-76
2022/02/07 06:44:19;;;;;;;28.67;3.22;;;;;;;5.47;96.38;102118.59;5101119;28;20026;-76
2022/02/07 06:46:44;;;;;;;16.63;3.55;;;;;;;5.50;96.83;102125.69;5092134;28;20020;-76
2022/02/07 06:49:10;;;;;;;24.45;2.75;;;;;;;5.46;97.38;102128.94;5084170;28;20077;-76
2022/02/07 06:51:36;;;;;;;27.02;3.60;;;;;;;5.45;97.38;102137.56;5087573;28;20123;-76
2022/02/07 06:54:01;;;;;;;19.33;2.58;;;;;;;5.44;97.48;102139.31;5102961;28;20026;-76
2022/02/07 06:56:27;;;;;;;25.95;4.40;;;;;;;5.48;98.11;102158.63;5101414;28;20394;-76
2022/02/07 06:58:52;;;;;;;20.67;4.07;;;;;;;5.48;98.04;102161.25;5097433;28;20023;-76
2022/02/07 07:01:17;;;;;;;25.70;2.75;;;;;;;5.52;98.07;102178.88;5084085;28;20100;-79
2022/02/07 07:03:45;;;;;;;24.55;3.53;;;;;;;5.55;97.40;102189.53;5101704;28;20028;-76
2022/02/07 07:06:12;;;;;;;22.77;3.25;;;;;;;5.57;96.96;102186.22;5101499;28;20055;-77
2022/02/07 07:08:43;;;;;;;20.88;2.78;;;;;;;5.61;97.22;102189.00;5100930;28;20028;-76
2022/02/07 07:11:09;;;;;;;27.45;3.17;;;;;;;5.58;97.19;102195.81;5082823;28;20436;-76
2022/02/07 07:13:42;;;;;;;24.95;3.47;;;;;;;5.59;97.44;102194.13;5100008;28;20031;-77
2022/02/07 07:16:36;;;;;;;18.75;3.08;;;;;;;5.56;97.99;102194.84;5102692;28;20486;-77
2022/02/07 07:19:03;;;;;;;18.15;3.10;;;;;;;5.56;97.67;102215.72;5100700;28;20032;-78
2022/02/07 07:21:29;;;;;;;28.13;4.13;;;;;;;5.61;98.28;102213.38;5101309;28;20551;-77
2022/02/07 07:23:54;;;;;;;24.27;3.03;;;;;;;5.65;99.07;102219.69;5106672;28;20106;-77
2022/02/07 07:26:23;;;;;;;24.73;2.88;;;;;;;5.68;98.87;102231.22;5100248;28;20059;-77
2022/02/07 07:28:48;;;;;;;23.17;3.08;;;;;;;5.67;99.43;102237.25;5093758;28;20087;-77
2022/02/07 07:31:15;;;;;;;36.30;4.15;;;;;;;5.71;99.11;102235.72;5104600;28;20115;-77
2022/02/07 07:33:42;;;;;;;23.50;3.97;;;;;;;5.74;99.27;102255.09;5079676;28;20019;-77
2022/02/07 07:36:08;;;;;;;26.63;3.60;;;;;;;5.76;98.72;102259.50;5082487;28;20123;-77
2022/02/07 07:38:33;;;;;;;20.83;2.58;;;;;;;5.79;98.93;102263.16;5078162;28;20432;-77
2022/02/07 07:40:58;;;;;;;20.20;3.38;;;;;;;5.83;99.00;102264.25;5097005;28;20504;-76
2022/02/07 07:43:24;;;;;;;18.52;3.42;;;;;;;5.89;99.46;102272.47;5080993;28;20022;-76
2022/02/07 07:45:59;;;;;;;23.40;3.15;;;;;;;5.88;99.64;102283.72;5101933;28;20051;-77
2022/02/07 07:48:26;;;;;;;15.98;3.35;;;;;;;5.88;99.86;102294.19;5082349;28;20035;-77
2022/02/07 07:51:05;;;;;;;19.95;2.70;;;;;;;5.88;99.80;102297.69;5083176;28;20048;-77
2022/02/07 08:04:13;;;;;;;28.83;2.92;;;;;;;5.79;100.00;102336.31;5102440;28;20039;-76
2022/02/07 08:07:28;;;;;;;30.10;3.13;;;;;;;5.69;100.00;102334.84;5092339;28;20069;-77
2022/02/07 08:12:03;;;;;;;21.10;3.05;;;;;;;5.59;100.00;102348.19;5103837;27;20077;-77
2022/02/07 08:14:34;;;;;;;33.88;4.03;;;;;;;5.58;100.00;102346.38;5106457;27;20046;-76
2022/02/07 08:16:59;;;;;;;28.13;3.60;;;;;;;5.60;100.00;102349.97;5101746;27;20027;-76
2022/02/07 08:19:26;;;;;;;24.10;3.00;;;;;;;5.66;100.00;102350.34;5087517;28;20536;-77
2022/02/07 08:21:51;;;;;;;19.08;2.95;;;;;;;5.68;100.00;102350.44;5088213;28;20399;-76
2022/02/07 08:24:17;;;;;;;28.88;3.67;;;;;;;5.76;100.00;102364.88;5118864;27;20027;-76
2022/02/07 08:26:42;;;;;;;19.50;3.28;;;;;;;5.80;100.00;102368.56;5107241;27;20035;-77
2022/02/07 08:29:08;;;;;;;25.52;3.33;;;;;;;5.87;100.00;102358.59;5096310;28;20364;-77
2022/02/07 08:31:33;;;;;;;16.27;2.63;;;;;;;5.91;100.00;102357.06;5114374;27;20032;-77
2022/02/07 08:33:58;;;;;;;15.38;3.38;;;;;;;5.96;100.00;102359.97;5106648;27;20077;-76
2022/02/07 08:36:24;;;;;;;23.00;2.95;;;;;;;5.99;100.00;102362.78;5104847;27;20071;-77
2022/02/07 08:38:49;;;;;;;21.75;2.42;;;;;;;6.01;100.00;102358.53;5115267;27;20115;-76
2022/02/07 08:41:15;;;;;;;20.73;2.83;;;;;;;6.04;100.00;102359.63;5089242;28;20043;-77
2022/02/07 08:43:41;;;;;;;22.58;3.25;;;;;;;6.06;99.75;102373.69;5105781;27;20035;-77
2022/02/07 08:46:07;;;;;;;24.50;3.05;;;;;;;6.13;99.67;102374.06;5105450;27;20475;-76
2022/02/07 08:48:32;;;;;;;28.65;3.13;;;;;;;6.20;99.30;102397.13;5087734;28;20026;-76
2022/02/07 08:50:57;;;;;;;25.52;4.22;;;;;;;6.27;99.24;102404.53;5108520;27;20040;-77
2022/02/07 08:53:26;;;;;;;25.90;3.38;;;;;;;6.35;98.89;102407.63;5088844;28;20024;-77
2022/02/07 08:55:52;;;;;;;18.63;2.60;;;;;;;6.40;96.74;102422.75;5081041;27;20130;-77
2022/02/07 08:58:22;;;;;;;23.58;2.92;;;;;;;6.46;95.27;102423.91;5121428;27;20034;-77
2022/02/07 09:03:24;;;;;;;17.70;2.65;;;;;;;6.52;94.40;102429.50;5108990;27;20047;-77
2022/02/07 09:10:45;;;;;;;21.33;2.88;;;;;;;6.66;93.58;102457.38;5113416;27;20036;-77
2022/02/07 09:13:10;;;;;;;23.17;2.67;;;;;;;6.65;94.38;102463.41;5101002;27;20038;-77
2022/02/07 09:18:05;;;;;;;23.30;2.78;;;;;;;6.61;94.43;102468.41;5113547;27;20027;-77
2022/02/07 09:20:32;;;;;;;17.63;2.33;;;;;;;6.58;93.71;102487.41;5088663;27;20031;-76
2022/02/07 09:22:57;;;;;;;21.83;2.50;;;;;;;6.49;93.77;102481.63;5084218;28;20123;-76
2022/02/07 09:25:22;;;;;;;17.50;2.70;;;;;;;6.41;94.14;102484.66;5097127;28;20102;-76
2022/02/07 09:27:48;;;;;;;22.85;2.60;;;;;;;6.43;94.62;102496.94;5080488;28;20032;-76
2022/02/07 09:30:13;;;;;;;16.33;1.98;;;;;;;6.45;93.60;102492.72;5105596;27;20038;-76
2022/02/07 09:32:38;;;;;;;19.17;3.13;;;;;;;6.49;94.31;102499.94;5103189;27;20058;-76
2022/02/07 09:35:04;;;;;;;13.60;2.67;;;;;;;6.52;93.60;102500.13;5087000;28;20024;-76
2022/02/07 09:37:30;;;;;;;31.33;4.72;;;;;;;6.60;93.61;102504.09;5096994;28;20127;-76
2022/02/07 09:39:55;;;;;;;20.95;2.95;;;;;;;6.66;93.56;102503.53;5088667;28;20019;-76
2022/02/07 09:42:22;;;;;;;15.70;2.72;;;;;;;6.81;93.08;102514.00;5081474;28;20030;-76
2022/02/07 09:44:54;;;;;;;18.35;2.42;;;;;;;6.95;93.39;102523.59;5089141;28;20034;-76
2022/02/07 09:47:20;;;;;;;15.82;3.63;;;;;;;6.72;95.13;102541.44;5084405;28;20391;-76
2022/02/07 09:49:46;;;;;;;14.50;2.00;;;;;;;6.64;96.00;102539.19;5086193;28;20032;-78
2022/02/07 09:52:12;;;;;;;16.63;2.22;;;;;;;6.56;96.25;102554.41;5079778;28;20058;-75
2022/02/07 09:54:39;;;;;;;15.93;2.00;;;;;;;6.53;96.76;102551.63;5074094;28;20024;-75
2022/02/07 09:57:05;;;;;;;24.80;3.08;;;;;;;6.47;97.40;102561.69;5093081;28;20500;-73
2022/02/07 09:59:31;;;;;;;18.85;2.05;;;;;;;6.52;96.32;102583.81;5063468;28;20029;-75
2022/02/07 10:02:01;;;;;;;20.02;2.28;;;;;;;6.43;96.28;102601.53;5094310;28;20069;-74
2022/02/07 10:04:34;;;;;;;21.35;1.85;;;;;;;6.38;95.76;102602.16;5091614;28;20074;-75
2022/02/07 10:07:23;;;;;;;15.63;2.08;;;;;;;6.40;95.97;102597.94;5085483;28;20078;-75
2022/02/07 10:09:58;;;;;;;17.63;2.70;;;;;;;6.40;96.06;102594.41;5052968;28;20029;-74
2022/02/07 10:15:13;;;;;;;23.60;3.30;;;;;;;6.60;95.98;102586.91;5090533;28;20090;-75
2022/02/07 10:39:53;;;;;;;14.82;3.90;;;;;;;7.48;92.01;102633.97;5087616;28;20464;-75
2022/02/07 10:42:42;;;;;;;14.18;1.75;;;;;;;7.98;89.06;102630.72;5091823;28;20560;-75
2022/02/07 10:45:08;;;;;;;22.52;2.22;;;;;;;7.84;88.76;102631.66;5085187;28;20567;-75
2022/02/07 10:47:41;;;;;;;19.45;2.15;;;;;;;7.61;88.79;102628.66;5073675;28;20020;-74
2022/02/07 10:50:14;;;;;;;;;;;;;;;7.84;88.31;102634.28;5097740;27;20055;-77
2022/02/07 10:52:54;;;;;;;15.05;2.80;;;;;;;8.17;86.64;102634.38;5090419;28;19963;-76
2022/02/07 10:55:30;;;;;;;14.40;1.95;;;;;;;7.99;85.53;102637.78;5108061;27;20069;-75
2022/02/07 10:57:58;;;;;;;18.17;2.28;;;;;;;7.74;86.92;102630.22;5107891;27;20108;-75
2022/02/07 11:00:54;;;;;;;15.07;3.17;;;;;;;7.56;88.18;102635.31;5105449;27;20482;-75
2022/02/07 11:03:19;;;;;;;20.17;2.13;;;;;;;7.43;89.40;102642.47;5112098;27;20046;-75
2022/02/07 11:05:49;;;;;;;26.65;2.95;;;;;;;7.74;89.78;102635.47;5084158;28;20028;-76
2022/02/07 11:11:18;;;;;;;22.65;2.70;;;;;;;7.94;85.75;102634.00;5104766;27;20039;-74
2022/02/07 11:14:04;;;;;;;17.33;2.05;;;;;;;7.69;86.75;102636.91;5104924;27;20502;-74
2022/02/07 11:24:18;;;;;;;;;;;;;;;7.57;87.56;102627.56;5109434;27;20032;-76
2022/02/07 11:26:49;;;;;;;20.40;2.28;;;;;;;7.71;88.32;102630.97;5119300;27;19933;-75
2022/02/07 11:29:38;;;;;;;19.88;2.25;;;;;;;8.61;85.26;102635.91;5086315;28;20048;-74
2022/02/07 11:32:04;;;;;;;17.05;2.80;;;;;;;9.28;80.33;102629.75;5105893;27;20049;-75
2022/02/07 11:34:44;;;;;;;20.25;3.05;;;;;;;9.47;79.95;102622.78;5080609;28;20024;-75
2022/02/07 11:37:18;;;;;;;12.40;2.00;;;;;;;10.07;79.13;102618.69;5104214;28;20063;-76
2022/02/07 11:39:48;;;;;;;15.75;2.38;;;;;;;10.59;76.33;102606.19;5113686;28;20038;-76
2022/02/07 11:42:14;;;;;;;18.67;2.35;;;;;;;11.12;73.62;102586.56;5079578;28;20364;-77
2022/02/07 11:44:43;;;;;;;16.45;2.70;;;;;;;12.02;72.06;102584.00;5098298;28;20032;-76
2022/02/07 11:47:16;;;;;;;15.55;2.65;;;;;;;12.16;68.58;102587.19;5099106;28;20054;-77
2022/02/07 11:49:47;;;;;;;12.65;1.83;;;;;;;12.22;69.15;102595.34;5094366;28;20043;-76
2022/02/07 11:52:28;;;;;;;15.02;2.17;;;;;;;11.78;69.21;102592.75;5072727;28;20447;-77
2022/02/07 11:55:03;;;;;;;17.95;2.33;;;;;;;10.58;71.96;102607.00;5103652;28;20035;-76
2022/02/07 11:57:36;;;;;;;22.13;2.53;;;;;;;10.02;74.05;102622.84;5077572;28;20074;-76
2022/02/07 12:00:15;;;;;;;14.73;2.33;;;;;;;9.35;76.31;102613.47;5104076;28;20086;-74
2022/02/07 12:02:47;;;;;;;23.55;2.83;;;;;;;9.18;77.81;102614.34;5103161;27;20034;-76
2022/02/07 12:05:18;;;;;;;13.30;1.95;;;;;;;9.76;76.91;102614.59;5109469;27;20110;-75
2022/02/07 12:08:05;;;;;;;11.57;2.13;;;;;;;10.13;74.08;102618.09;5092464;28;20454;-76
2022/02/07 12:13:03;;;;;;;13.02;1.95;;;;;;;10.03;74.46;102618.50;5101930;27;20110;-75
2022/02/07 12:18:17;;;;;;;11.77;2.90;;;;;;;10.59;70.34;102630.78;5100039;27;20090;-75
2022/02/07 12:20:45;;;;;;;;;;;;;;;10.78;69.83;102635.16;5084908;28;20059;-76
2022/02/07 12:23:17;;;;;;;12.82;1.98;;;;;;;11.17;68.63;102625.38;5082798;27;19960;-75
2022/02/07 12:25:55;;;;;;;12.00;1.52;;;;;;;11.30;68.04;102627.72;5117742;27;20443;-76
2022/02/07 12:28:42;;;;;;;15.38;2.03;;;;;;;11.47;68.17;102633.66;5088386;28;20032;-76
2022/02/07 12:31:18;;;;;;;11.63;2.13;;;;;;;11.71;64.92;102630.25;5087780;27;20024;-76
2022/02/07 12:33:46;;;;;;;12.38;2.03;;;;;;;11.78;65.82;102640.22;5094448;27;20033;-76
2022/02/07 12:36:12;;;;;;;9.32;1.88;;;;;;;12.14;64.47;102630.25;5111677;27;20024;-74
2022/02/07 12:38:41;;;;;;;9.40;1.67;;;;;;;12.23;63.93;102636.72;5083102;28;20519;-76
2022/02/07 12:41:11;;;;;;;10.18;1.67;;;;;;;11.94;63.24;102639.09;5126960;27;20020;-74
2022/02/07 12:43:38;;;;;;;14.88;2.20;;;;;;;11.90;64.57;102647.72;5108099;27;20060;-76
2022/02/07 12:46:07;;;;;;;11.40;2.25;;;;;;;11.44;64.16;102641.47;5099530;28;20039;-75
2022/02/07 12:48:37;;;;;;;14.55;2.08;;;;;;;10.59;67.80;102656.19;5097630;27;20730;-76
2022/02/07 12:51:03;;;;;;;10.48;3.03;;;;;;;10.91;67.19;102651.50;5085222;27;20036;-76
2022/02/07 12:53:29;;;;;;;11.07;2.10;;;;;;;10.78;67.43;102652.66;5085856;27;20391;-76
2022/02/07 12:55:58;;;;;;;6.45;1.55;;;;;;;10.37;67.33;102649.94;5097741;27;20024;-75
2022/02/07 12:58:28;;;;;;;13.48;1.92;;;;;;;10.13;67.68;102658.47;5089370;28;20016;-75
2022/02/07 13:00:54;;;;;;;10.65;2.10;;;;;;;10.20;68.04;102657.03;5084757;28;20487;-75
2022/02/07 13:03:20;;;;;;;12.77;1.75;;;;;;;10.63;66.75;102655.50;5087191;27;20019;-76
2022/02/07 13:05:47;;;;;;;11.65;1.67;;;;;;;10.89;66.21;102661.97;5099984;27;20020;-76
2022/02/07 13:08:15;;;;;;;9.82;1.83;;;;;;;11.52;64.53;102650.59;5087538;28;20033;-76
2022/02/07 13:10:40;;;;;;;13.25;1.80;;;;;;;12.01;62.97;102659.63;5081834;28;20467;-75
2022/02/07 13:13:48;;;;;;;10.13;1.92;;;;;;;11.60;62.96;102657.06;5093800;27;20085;-76
2022/02/07 13:16:02;;;;;;;11.98;2.67;;;;;;;11.61;61.91;102660.59;5107517;27;20092;-76
2022/02/07 13:18:33;;;;;;;7.97;1.85;;;;;;;12.08;60.19;102664.31;5101700;27;20020;-75
2022/02/07 13:21:02;;;;;;;14.77;2.10;;;;;;;12.47;59.29;102658.78;5099234;27;20119;-74
2022/02/07 13:23:29;;;;;;;10.73;1.70;;;;;;;12.34;58.30;102651.22;5088560;28;20031;-75
2022/02/07 13:25:56;;;;;;;10.88;1.70;;;;;;;12.56;58.26;102657.31;5078750;28;20028;-75
2022/02/07 13:28:24;;;;;;;9.35;1.73;;;;;;;12.55;58.37;102655.56;5101120;27;20043;-76
2022/02/07 13:30:52;;;;;;;11.00;1.95;;;;;;;12.65;58.50;102658.56;5109287;27;20050;-76
2022/02/07 13:33:17;;;;;;;6.95;1.50;;;;;;;12.94;56.46;102660.47;5120796;27;20483;-76
2022/02/07 13:35:46;;;;;;;13.98;2.33;;;;;;;12.47;57.32;102652.63;5103425;27;20111;-75
2022/02/07 13:38:14;;;;;;;8.57;2.20;;;;;;;12.16;56.86;102651.41;5111403;27;20022;-75
2022/02/07 13:40:42;;;;;;;5.25;1.42;;;;;;;12.36;58.44;102654.84;5083985;28;20036;-75
2022/02/07 13:43:21;;;;;;;10.65;1.95;;;;;;;12.71;57.71;102659.63;5121293;27;20114;-75
2022/02/07 13:45:55;;;;;;;12.38;2.90;;;;;;;13.10;56.38;102657.56;5096066;28;20027;-75
2022/02/07 13:48:23;;;;;;;12.35;1.85;;;;;;;13.19;55.19;102658.72;5098255;28;20053;-76
2022/02/07 13:50:53;;;;;;;9.65;3.05;;;;;;;12.99;55.82;102672.13;5097841;27;20072;-75
2022/02/07 13:53:18;;;;;;;8.05;1.50;;;;;;;12.79;55.79;102676.66;5076256;28;20119;-76
2022/02/07 13:55:51;;;;;;;9.63;1.98;;;;;;;13.18;55.47;102680.72;5081260;28;20528;-76